Pristina, Kosovo

9:52 AM CEST on September 03, 2014 (GMT +0200)
Velania | Change Station
CLOSE
Current Station
Personal Weather Station
Location: Prishtina, KOSOVO
Elevation: 2192 ft
Nearby Weather Stations

Elev 2192 ft 42.66 °N, 21.18 °E | Updated 4 seconds ago

Overcast
Overcast
65.1 °F
Feels Like 65.1 °F
N
10.4
Wind Variable Wind from NNE
Gusts 10.4 mph

Today
High -- | Low -- °F
--% Chance of Precip.
Yesterday
High -- | Low -- °F
Precip. -- in
6:02 AM 7:06 PM
First Quarter, 60% visible
Pressure 29.74 in
Visibility 6.2 miles
Clouds Few 300 ft
Mostly Cloudy 5000 ft
Overcast 7300 ft
Dew Point 54 °F
Humidity 67%
Rainfall 0.08 in
Snow Depth Not available.
UV 1 out of 12
Pollen Not available.
Air Quality Not available.
Flu Activity Not available.
METAR LWSK 030730Z 00000KT 9999 -DZ FEW003 BKN050 OVC073 18/17 Q1007 RERA NOSIG

More Conditions Fewer Conditions

Pressure 29.74 in
Visibility 6.2 miles
Clouds Few 300 ft
Mostly Cloudy 5000 ft
Overcast 7300 ft
Dew Point 54 °F
Humidity 67%
Rainfall 0.08 in
Snow Depth Not available.
UV 1 out of 12
Pollen Not available.
Air Quality Not available.
Flu Activity Not available.
METAR LWSK 030730Z 00000KT 9999 -DZ FEW003 BKN050 OVC073 18/17 Q1007 RERA NOSIG

More Conditions Fewer Conditions

10-Day Weather Forecast

Almanac

Astronomy

Sep. 03, 2014 Rise Set
Actual Time 6:02 AM CEST 7:06 PM CEST
Civil Twilight 5:33 AM CEST 7:35 PM CEST
Nautical Twilight 4:58 AM CEST 8:10 PM CEST
Astronomical Twilight 4:22 AM CEST 8:46 PM CEST
Moon 2:35 PM CEST No Moon Set
Length of Visible Light 14h 02m
Length of Day
13h 04m
Tomorrow will be 2m 48s shorter.
First Quarter, 60% of the Moon is Illuminated
Today
First Quarter
Sep 8
Full
Sep 15
Last Quarter
Sep 24
New
Oct 1
First Quarter

Community

WunderPhotos

Upload Photos

1,749,899 photos uploaded!

Nearby

Snow Depth

Not available.

Earthquake Activity

City Distance Mag. Time & Date
No recent earthquake activity has been reported nearby.
Minimum magnitude displayed is 2.5.

Coastal Water Temperatures

Place Temperature
No Stations Reporting

Nearby Weather Stations